Time;durP1;ratioP1;P1;durP2;ratioP2;P2;SDS_P1;SDS_P2;PMS_P1;PMS_P2;Temp;Humidity;BMP_temperature;BMP_pressure;BME280_temperature;BME280_humidity;BME280_pressure;Samples;Min_cycle;Max_cycle;Signal;HPM_P1;HPM_P2
2022/04/03 00:00:12;;;;;;;6.07;2.92;;;;;;;0.59;60.31;102249.84;4737043;30;20044;-92
2022/04/03 00:02:37;;;;;;;4.80;3.00;;;;;;;0.66;60.45;102256.09;4733265;30;20048;-91
2022/04/03 00:05:03;;;;;;;4.85;2.42;;;;;;;0.71;59.50;102250.13;4736438;30;20038;-95
2022/04/03 00:07:29;;;;;;;3.42;2.53;;;;;;;0.70;59.76;102243.19;4749803;30;20035;-95
2022/04/03 00:09:54;;;;;;;3.97;2.33;;;;;;;0.74;60.28;102242.38;4734943;30;20421;-93
2022/04/03 00:12:20;;;;;;;6.05;2.65;;;;;;;0.65;60.16;102241.28;4753202;30;20039;-94
2022/04/03 00:14:45;;;;;;;4.00;2.70;;;;;;;0.62;62.85;102255.13;4742068;30;20042;-93
2022/04/03 00:17:10;;;;;;;4.72;3.08;;;;;;;0.55;60.04;102250.63;4732641;30;20670;-93
2022/04/03 00:19:36;;;;;;;5.85;3.08;;;;;;;0.57;60.82;102245.47;4732556;30;20044;-94
2022/04/03 00:22:03;;;;;;;6.97;3.67;;;;;;;0.58;61.18;102248.09;4737252;30;21019;-94
2022/04/03 00:24:29;;;;;;;4.07;2.70;;;;;;;0.50;61.87;102244.44;4756226;30;20111;-91
2022/04/03 00:26:54;;;;;;;5.43;2.70;;;;;;;0.40;62.60;102248.53;4751757;30;20040;-94
2022/04/03 00:29:20;;;;;;;7.45;3.13;;;;;;;0.25;62.23;102240.38;4737841;30;20040;-93
2022/04/03 00:31:45;;;;;;;6.45;3.10;;;;;;;0.18;62.01;102243.63;4733580;30;20063;-93
2022/04/03 00:34:10;;;;;;;4.68;3.13;;;;;;;0.16;62.67;102253.13;4736601;30;20539;-93
2022/04/03 00:36:36;;;;;;;3.75;2.83;;;;;;;0.10;61.98;102255.59;4740058;30;20104;-94
2022/04/03 00:39:02;;;;;;;6.65;3.10;;;;;;;-0.02;62.60;102238.81;4752747;30;20036;-93
2022/04/03 00:41:27;;;;;;;5.30;2.63;;;;;;;0.04;63.10;102250.22;4737628;30;20097;-92
2022/04/03 00:43:53;;;;;;;6.65;3.45;;;;;;;-0.01;64.77;102250.97;4733419;30;20043;-95
2022/04/03 00:46:21;;;;;;;6.60;2.97;;;;;;;-0.02;63.51;102254.41;4747051;30;20534;-93
2022/04/03 00:48:47;;;;;;;3.10;2.80;;;;;;;-0.12;65.49;102246.34;4735389;30;20587;-94
2022/04/03 00:51:13;;;;;;;9.10;2.78;;;;;;;-0.16;63.81;102252.31;4734689;30;20081;-92
2022/04/03 00:53:39;;;;;;;6.53;3.55;;;;;;;-0.11;64.53;102250.69;4730790;30;20058;-93
2022/04/03 00:56:05;;;;;;;5.25;3.15;;;;;;;-0.10;63.28;102247.25;4736930;30;20040;-92
2022/04/03 00:58:31;;;;;;;6.20;3.50;;;;;;;-0.05;63.57;102253.44;4730953;30;20412;-91
2022/04/03 01:00:57;;;;;;;4.93;2.95;;;;;;;-0.07;65.43;102252.53;4737369;30;20075;-94
2022/04/03 01:03:22;;;;;;;7.60;3.33;;;;;;;-0.09;65.23;102260.31;4736437;30;20074;-91
2022/04/03 01:05:47;;;;;;;3.72;2.95;;;;;;;-0.14;64.61;102248.00;4745191;30;20106;-93
2022/04/03 01:08:13;;;;;;;6.80;3.92;;;;;;;-0.27;67.93;102242.50;4731192;30;20039;-93
2022/04/03 01:10:40;;;;;;;5.82;3.78;;;;;;;-0.35;66.22;102237.94;4755109;30;20035;-93
2022/04/03 01:13:06;;;;;;;5.72;3.45;;;;;;;-0.44;65.35;102222.97;4734156;30;20072;-92
2022/04/03 01:15:32;;;;;;;4.68;2.88;;;;;;;-0.48;65.59;102228.94;4730051;30;20128;-93
2022/04/03 01:17:58;;;;;;;6.63;3.35;;;;;;;-0.40;65.18;102247.34;4732142;30;20041;-92
2022/04/03 01:20:24;;;;;;;9.40;3.85;;;;;;;-0.42;66.03;102244.69;4734301;30;20098;-93
2022/04/03 01:22:49;;;;;;;7.30;3.50;;;;;;;-0.45;65.82;102238.53;4733334;30;20067;-92
2022/04/03 01:25:15;;;;;;;5.72;3.35;;;;;;;-0.52;65.48;102238.34;4732458;30;20536;-93
2022/04/03 01:27:40;;;;;;;8.85;4.10;;;;;;;-0.52;65.74;102234.88;4730083;30;20036;-93
2022/04/03 01:30:07;;;;;;;4.80;3.05;;;;;;;-0.53;65.39;102246.09;4732166;30;20064;-93
2022/04/03 01:32:33;;;;;;;12.07;4.15;;;;;;;-0.65;67.63;102233.66;4734933;30;20500;-94
2022/04/03 01:34:58;;;;;;;6.38;3.45;;;;;;;-0.65;66.80;102245.78;4728051;30;20044;-91
2022/04/03 01:37:24;;;;;;;4.97;3.60;;;;;;;-0.65;67.17;102249.25;4728875;30;20036;-93
2022/04/03 01:39:49;;;;;;;4.63;3.33;;;;;;;-0.72;66.45;102236.91;4731496;30;20029;-93
2022/04/03 01:42:15;;;;;;;6.60;3.58;;;;;;;-0.73;67.52;102234.28;4733399;30;20834;-93
2022/04/03 01:44:40;;;;;;;5.82;3.80;;;;;;;-0.78;69.02;102235.03;4732111;30;20024;-92
2022/04/03 01:47:05;;;;;;;5.35;3.53;;;;;;;-0.72;69.66;102231.72;4728927;30;20040;-91
2022/04/03 01:49:31;;;;;;;6.50;3.35;;;;;;;-0.79;67.96;102228.09;4732203;30;20039;-92
2022/04/03 01:51:56;;;;;;;5.18;3.88;;;;;;;-0.81;68.06;102224.53;4731790;30;20105;-93
2022/04/03 01:54:21;;;;;;;8.45;3.95;;;;;;;-0.76;68.22;102240.25;4735340;30;20029;-91
2022/04/03 01:56:47;;;;;;;5.18;3.55;;;;;;;-0.86;67.81;102227.84;4735045;30;20044;-93
2022/04/03 01:59:12;;;;;;;7.68;3.72;;;;;;;-0.86;68.50;102241.72;4729905;30;20213;-94
2022/04/03 02:01:37;;;;;;;6.18;3.40;;;;;;;-0.99;68.92;102226.59;4731376;30;20033;-92
2022/04/03 02:04:03;;;;;;;8.57;3.78;;;;;;;-0.94;67.18;102239.72;4731212;30;20067;-93
2022/04/03 02:06:30;;;;;;;5.93;4.20;;;;;;;-1.17;68.90;102205.31;4729835;30;20029;-91
2022/04/03 02:08:55;;;;;;;8.10;3.80;;;;;;;-1.18;69.29;102213.94;4729495;30;20033;-93
2022/04/03 02:11:20;;;;;;;8.73;3.85;;;;;;;-1.10;68.64;102238.41;4730760;30;20062;-92
2022/04/03 02:13:46;;;;;;;4.97;3.42;;;;;;;-1.14;68.15;102221.84;4733380;30;20041;-93
2022/04/03 02:16:11;;;;;;;7.38;4.00;;;;;;;-1.10;68.03;102228.91;4712301;30;20057;-93
2022/04/03 02:18:37;;;;;;;7.72;3.90;;;;;;;-1.08;68.70;102232.41;4706217;30;20394;-95
2022/04/03 02:21:02;;;;;;;5.07;3.90;;;;;;;-1.19;68.41;102219.97;4706483;30;20453;-93
2022/04/03 02:23:27;;;;;;;7.53;3.97;;;;;;;-1.21;68.84;102206.03;4708549;30;20090;-91
2022/04/03 02:25:53;;;;;;;8.32;4.25;;;;;;;-1.16;68.63;102228.72;4708625;30;20315;-93
2022/04/03 02:28:19;;;;;;;5.30;3.85;;;;;;;-1.27;67.85;102204.16;4706024;30;20048;-93
2022/04/03 02:30:45;;;;;;;6.03;3.70;;;;;;;-1.17;67.93;102223.47;4704871;30;20060;-92
2022/04/03 02:33:10;;;;;;;8.32;3.83;;;;;;;-1.22;67.55;102225.03;4707423;30;20041;-94
2022/04/03 02:35:35;;;;;;;9.02;4.18;;;;;;;-1.22;68.25;102231.09;4708599;30;20037;-92
2022/04/03 02:38:01;;;;;;;5.43;3.53;;;;;;;-1.25;68.69;102223.25;4705183;30;20033;-93
2022/04/03 02:40:27;;;;;;;5.57;3.25;;;;;;;-1.24;67.54;102234.50;4707687;30;20053;-92
2022/04/03 02:42:52;;;;;;;10.27;4.18;;;;;;;-1.27;68.15;102227.50;4705697;30;20140;-93
2022/04/03 02:45:18;;;;;;;6.63;4.00;;;;;;;-1.23;68.24;102234.53;4707941;30;20044;-93
2022/04/03 02:47:55;;;;;;;7.07;4.20;;;;;;;-1.30;68.68;102222.25;4707855;30;20044;-92
2022/04/03 02:50:23;;;;;;;7.57;3.70;;;;;;;-1.28;68.08;102230.94;4709763;30;20397;-93
2022/04/03 02:52:49;;;;;;;7.95;4.35;;;;;;;-1.39;69.00;102219.38;4708723;30;20037;-91
2022/04/03 02:55:16;;;;;;;6.88;4.15;;;;;;;-1.36;68.83;102235.88;4708176;30;20395;-93
2022/04/03 02:57:42;;;;;;;10.20;3.90;;;;;;;-1.35;69.20;102232.47;4709977;30;20119;-93
2022/04/03 03:00:07;;;;;;;5.80;3.95;;;;;;;-1.37;68.01;102230.66;4708330;30;20051;-92
2022/04/03 03:02:33;;;;;;;7.35;3.92;;;;;;;-1.44;68.20;102224.41;4708827;30;20105;-93
2022/04/03 03:04:58;;;;;;;7.45;3.72;;;;;;;-1.44;68.95;102226.13;4709004;30;20168;-92
2022/04/03 03:07:24;;;;;;;6.03;3.92;;;;;;;-1.41;68.39;102228.78;4707691;30;20487;-93
2022/04/03 03:09:50;;;;;;;5.93;3.80;;;;;;;-1.40;68.98;102233.13;4708240;30;20039;-94
2022/04/03 03:12:15;;;;;;;7.78;4.28;;;;;;;-1.40;69.26;102240.91;4710131;30;20032;-93
2022/04/03 03:14:41;;;;;;;7.85;4.07;;;;;;;-1.49;69.96;102233.75;4712500;30;20037;-94
2022/04/03 03:17:06;;;;;;;5.47;3.60;;;;;;;-1.48;69.08;102237.22;4736189;30;20075;-93
2022/04/03 03:19:32;;;;;;;6.20;3.78;;;;;;;-1.51;69.20;102237.13;4750333;30;20493;-92
2022/04/03 03:21:57;;;;;;;7.45;4.13;;;;;;;-1.54;69.60;102237.88;4734658;30;20032;-92
2022/04/03 03:24:23;;;;;;;8.45;4.60;;;;;;;-1.55;69.32;102236.13;4737890;30;20051;-93
2022/04/03 03:26:48;;;;;;;6.50;4.50;;;;;;;-1.51;69.77;102244.91;4736300;30;20401;-94
2022/04/03 03:29:13;;;;;;;7.03;4.15;;;;;;;-1.59;69.41;102242.94;4733613;30;20056;-93
2022/04/03 03:31:39;;;;;;;6.20;3.78;;;;;;;-1.57;68.78;102256.84;4750634;30;20038;-93
2022/04/03 03:34:04;;;;;;;5.10;3.67;;;;;;;-1.59;70.09;102252.44;4736372;30;20444;-93
2022/04/03 03:36:29;;;;;;;5.80;4.10;;;;;;;-1.69;69.78;102246.06;4735469;30;20083;-92
2022/04/03 03:38:55;;;;;;;5.65;4.32;;;;;;;-1.68;69.27;102255.63;4735807;30;20389;-93
2022/04/03 03:41:21;;;;;;;7.45;4.63;;;;;;;-1.79;70.96;102241.41;4738270;30;20981;-93
2022/04/03 03:43:47;;;;;;;9.35;4.80;;;;;;;-1.77;70.93;102255.31;4751409;30;20120;-94
2022/04/03 03:46:12;;;;;;;10.38;5.80;;;;;;;-1.88;71.43;102247.16;4735930;30;20024;-94
2022/04/03 03:48:38;;;;;;;5.68;4.38;;;;;;;-1.95;71.91;102244.34;4735896;30;20024;-94
2022/04/03 03:51:04;;;;;;;7.75;4.15;;;;;;;-1.96;71.50;102250.34;4735197;30;20038;-94
2022/04/03 03:53:30;;;;;;;7.45;4.55;;;;;;;-1.98;71.38;102246.81;4735436;30;20554;-94
2022/04/03 03:55:55;;;;;;;7.00;4.63;;;;;;;-2.10;71.21;102237.81;4734521;30;20078;-94
2022/04/03 03:58:21;;;;;;;7.63;4.15;;;;;;;-2.16;71.44;102232.41;4737055;30;20040;-93
2022/04/03 04:00:46;;;;;;;7.38;4.53;;;;;;;-2.10;71.34;102237.81;4737788;30;20036;-93
2022/04/03 04:03:12;;;;;;;6.95;4.30;;;;;;;-2.06;71.41;102241.38;4737459;30;20825;-93
2022/04/03 04:05:38;;;;;;;5.47;3.85;;;;;;;-2.11;71.02;102237.75;4749753;30;20123;-94
2022/04/03 04:08:04;;;;;;;7.80;4.32;;;;;;;-2.07;70.20;102247.38;4735157;30;20074;-94
2022/04/03 04:10:29;;;;;;;4.47;3.65;;;;;;;-2.24;69.06;102214.84;4750117;30;20036;-94
2022/04/03 04:12:54;;;;;;;7.28;4.07;;;;;;;-2.15;70.56;102241.94;4736129;30;20043;-91
2022/04/03 04:15:20;;;;;;;8.63;4.90;;;;;;;-2.18;71.89;102247.03;4729791;30;20047;-93
2022/04/03 04:17:48;;;;;;;7.45;4.47;;;;;;;-2.22;71.50;102247.75;4719470;30;20029;-92
2022/04/03 04:20:15;;;;;;;5.72;3.72;;;;;;;-2.23;70.76;102251.19;4722689;30;20094;-92
2022/04/03 04:22:42;;;;;;;7.55;4.53;;;;;;;-2.34;71.99;102230.06;4718722;30;20044;-92
2022/04/03 04:25:08;;;;;;;7.20;4.60;;;;;;;-2.25;72.62;102252.81;4722592;30;20076;-93
2022/04/03 04:27:35;;;;;;;8.77;4.40;;;;;;;-2.31;72.31;102250.91;4719957;30;20039;-92
2022/04/03 04:30:00;;;;;;;7.03;4.28;;;;;;;-2.30;72.39;102249.19;4722601;30;20151;-94
2022/04/03 04:32:26;;;;;;;6.72;3.90;;;;;;;-2.29;72.47;102253.53;4721237;30;20127;-93
2022/04/03 04:34:52;;;;;;;5.93;3.85;;;;;;;-2.36;72.15;102244.69;4721361;30;20029;-92
2022/04/03 04:37:18;;;;;;;7.60;4.63;;;;;;;-2.34;72.13;102248.19;4720145;30;20544;-93
2022/04/03 04:39:44;;;;;;;5.80;4.50;;;;;;;-2.41;72.22;102242.75;4720261;30;20032;-92
2022/04/03 04:42:10;;;;;;;6.15;4.07;;;;;;;-2.41;72.10;102240.16;4736275;30;20052;-93
2022/04/03 04:44:35;;;;;;;6.63;4.13;;;;;;;-2.32;72.07;102256.03;4720869;30;20044;-93
2022/04/03 04:47:01;;;;;;;8.63;4.60;;;;;;;-2.43;71.20;102234.91;4721482;30;20036;-93
2022/04/03 04:49:27;;;;;;;8.55;3.90;;;;;;;-2.40;71.24;102240.22;4721940;30;20194;-92
2022/04/03 04:51:52;;;;;;;8.93;4.13;;;;;;;-2.31;72.21;102262.97;4720431;30;20075;-93
2022/04/03 04:54:18;;;;;;;7.15;4.32;;;;;;;-2.29;73.65;102269.06;4722279;30;20037;-93
2022/04/03 04:56:43;;;;;;;7.30;4.25;;;;;;;-2.35;71.82;102266.28;4723753;30;20048;-92
2022/04/03 04:59:08;;;;;;;8.55;4.03;;;;;;;-2.39;72.32;102269.56;4722505;30;20036;-93
2022/04/03 05:01:34;;;;;;;5.93;4.20;;;;;;;-2.39;71.68;102274.75;4724582;30;20123;-93
2022/04/03 05:03:59;;;;;;;8.25;4.55;;;;;;;-2.41;71.57;102271.25;4722359;30;20141;-92
2022/04/03 05:06:26;;;;;;;6.63;4.28;;;;;;;-2.29;71.79;102281.13;4718066;30;20245;-93
2022/04/03 05:08:52;;;;;;;7.20;4.65;;;;;;;-2.27;71.27;102284.69;4719540;30;20121;-92
2022/04/03 05:11:18;;;;;;;7.47;4.63;;;;;;;-2.27;71.83;102289.88;4724091;30;20729;-93
2022/04/03 05:13:44;;;;;;;11.88;5.68;;;;;;;-2.41;72.03;102282.47;4721386;30;20036;-92
2022/04/03 05:16:10;;;;;;;6.93;4.05;;;;;;;-2.52;72.96;102277.72;4720737;30;20110;-92
2022/04/03 05:18:36;;;;;;;5.95;4.57;;;;;;;-2.50;73.00;102276.09;4721170;30;20449;-93
2022/04/03 05:21:03;;;;;;;10.80;4.82;;;;;;;-2.48;72.33;102270.13;4722615;30;20070;-93
2022/04/03 05:23:28;;;;;;;9.32;4.05;;;;;;;-2.36;72.37;102280.94;4714979;30;20106;-92
2022/04/03 05:25:53;;;;;;;9.98;4.40;;;;;;;-2.31;71.98;102275.91;4722583;30;20041;-94
2022/04/03 05:28:21;;;;;;;9.40;4.70;;;;;;;-2.32;72.67;102287.09;4719098;30;20047;-92
2022/04/03 05:30:47;;;;;;;6.40;4.50;;;;;;;-2.36;72.95;102285.25;4721124;30;20428;-92
2022/04/03 05:33:14;;;;;;;8.55;4.40;;;;;;;-2.27;72.36;102289.88;4719226;30;20090;-93
2022/04/03 05:35:39;;;;;;;8.55;5.15;;;;;;;-2.21;72.26;102288.34;4722593;30;20037;-93
2022/04/03 05:38:05;;;;;;;10.73;5.15;;;;;;;-2.17;72.15;102287.66;4718775;30;20410;-94
2022/04/03 05:40:30;;;;;;;9.98;3.97;;;;;;;-2.09;71.79;102285.34;4719457;30;20403;-92
2022/04/03 05:42:56;;;;;;;10.40;4.13;;;;;;;-1.93;72.02;102291.91;4720283;30;20040;-94
2022/04/03 05:45:21;;;;;;;8.45;4.30;;;;;;;-1.86;71.89;102299.09;4723904;30;20040;-93
2022/04/03 05:47:47;;;;;;;7.07;4.65;;;;;;;-1.90;71.87;102281.66;4717217;30;20539;-93
2022/04/03 05:50:14;;;;;;;7.93;4.57;;;;;;;-1.90;71.71;102281.66;4723136;30;20453;-93
2022/04/03 05:52:48;;;;;;;8.48;4.70;;;;;;;-1.65;72.35;102315.34;4720359;30;20043;-93
2022/04/03 05:55:16;;;;;;;7.97;4.93;;;;;;;-1.55;72.09;102312.22;4723027;30;20086;-92
2022/04/03 05:57:43;;;;;;;7.05;4.32;;;;;;;-1.50;71.97;102308.91;4718220;30;20042;-92
2022/04/03 06:00:13;;;;;;;8.35;5.00;;;;;;;-1.37;72.23;102311.94;4722580;30;20032;-93
2022/04/03 06:02:56;;;;;;;6.82;4.93;;;;;;;-1.27;71.76;102305.31;4723274;30;20050;-93
2022/04/03 06:05:23;;;;;;;10.77;4.47;;;;;;;-1.17;71.98;102314.28;4719597;30;20140;-92
2022/04/03 06:07:49;;;;;;;7.40;5.07;;;;;;;-1.16;71.47;102310.88;4719703;30;20032;-93
2022/04/03 06:10:15;;;;;;;11.75;5.50;;;;;;;-1.08;71.53;102323.25;4720443;30;20074;-91
2022/04/03 06:13:04;;;;;;;9.48;6.18;;;;;;;-0.95;71.00;102314.13;4722586;30;20135;-93
2022/04/03 06:15:50;;;;;;;10.95;5.97;;;;;;;-0.93;71.61;102317.66;4721656;30;20402;-93
2022/04/03 06:18:17;;;;;;;8.73;5.45;;;;;;;-0.91;71.23;102304.72;4717760;30;20382;-92
2022/04/03 06:20:43;;;;;;;11.45;6.03;;;;;;;-0.79;71.77;102313.78;4722668;30;20028;-93
2022/04/03 06:23:15;;;;;;;10.32;5.20;;;;;;;-0.60;71.95;102312.59;4722244;30;20029;-92
2022/04/03 06:25:42;;;;;;;11.63;5.57;;;;;;;-0.55;71.40;102308.41;4721850;30;20067;-94
2022/04/03 06:28:07;;;;;;;9.82;5.85;;;;;;;-0.48;72.17;102306.84;4723677;30;20040;-93
2022/04/03 06:30:33;;;;;;;7.85;5.55;;;;;;;-0.43;72.08;102320.84;4726099;30;20032;-93
2022/04/03 06:32:58;;;;;;;13.18;5.43;;;;;;;-0.29;71.94;102316.94;4725538;30;20040;-92
2022/04/03 06:35:23;;;;;;;9.27;5.72;;;;;;;-0.30;71.31;102316.91;4722848;30;20036;-93
2022/04/03 06:37:49;;;;;;;14.73;5.80;;;;;;;-0.32;72.19;102321.19;4719240;30;20041;-93
2022/04/03 06:40:14;;;;;;;11.50;6.32;;;;;;;-0.35;71.59;102308.09;4721207;30;20029;-92
2022/04/03 06:42:40;;;;;;;7.47;5.15;;;;;;;-0.29;70.77;102327.31;4722920;30;20389;-92
2022/04/03 06:45:06;;;;;;;10.30;5.95;;;;;;;-0.23;72.01;102323.13;4724352;30;20052;-93
2022/04/03 06:47:32;;;;;;;12.27;7.00;;;;;;;-0.24;72.34;102322.25;4735103;30;20118;-93
2022/04/03 06:49:59;;;;;;;10.05;6.68;;;;;;;-0.24;72.98;102317.06;4726403;30;20159;-92
2022/04/03 06:52:24;;;;;;;9.02;6.93;;;;;;;-0.14;72.10;102311.31;4722497;30;20036;-93
2022/04/03 06:54:50;;;;;;;11.98;7.05;;;;;;;-0.12;72.18;102294.00;4724674;30;20043;-93
2022/04/03 06:57:16;;;;;;;9.18;7.10;;;;;;;0.05;72.37;102323.06;4726356;30;20037;-93
2022/04/03 06:59:42;;;;;;;10.13;6.70;;;;;;;0.11;71.74;102325.81;4722157;30;20541;-93
2022/04/03 07:02:08;;;;;;;11.93;6.97;;;;;;;0.20;72.02;102320.00;4725541;30;20094;-92
2022/04/03 07:04:35;;;;;;;11.30;6.85;;;;;;;0.29;71.66;102309.81;4728564;30;21146;-92
2022/04/03 07:07:00;;;;;;;11.98;7.93;;;;;;;0.42;71.94;102324.91;4721656;30;20442;-92
2022/04/03 07:09:25;;;;;;;9.77;6.70;;;;;;;0.44;72.26;102319.75;4721142;30;20120;-93
2022/04/03 07:11:51;;;;;;;10.15;6.68;;;;;;;0.56;71.56;102324.34;4723325;30;20043;-93
2022/04/03 07:14:16;;;;;;;15.50;7.13;;;;;;;0.64;70.98;102321.09;4725993;30;20067;-93
2022/04/03 07:16:41;;;;;;;10.38;6.72;;;;;;;0.73;71.08;102321.31;4734417;30;20067;-92
2022/04/03 07:19:07;;;;;;;9.38;6.50;;;;;;;0.84;70.55;102326.81;4734848;30;20457;-92
2022/04/03 07:21:32;;;;;;;9.32;7.32;;;;;;;0.99;70.22;102334.09;4737819;30;20114;-92
2022/04/03 07:23:58;;;;;;;10.23;7.05;;;;;;;1.02;70.07;102315.91;4738736;30;20039;-92
2022/04/03 07:26:23;;;;;;;9.32;7.13;;;;;;;1.06;69.91;102306.44;4736270;30;20036;-92
2022/04/03 07:28:48;;;;;;;13.23;8.73;;;;;;;1.12;70.53;102317.00;4736512;30;20070;-92
2022/04/03 07:31:14;;;;;;;11.82;8.65;;;;;;;1.15;71.29;102324.88;4738071;30;20078;-92
2022/04/03 07:33:39;;;;;;;12.35;8.25;;;;;;;1.19;71.31;102325.00;4734987;30;20063;-92
2022/04/03 07:36:05;;;;;;;12.05;8.57;;;;;;;1.33;70.95;102327.91;4736178;30;20040;-93
2022/04/03 07:38:30;;;;;;;10.82;8.85;;;;;;;1.39;70.64;102308.91;4733713;30;20101;-92
2022/04/03 07:40:56;;;;;;;13.18;8.70;;;;;;;1.64;70.36;102328.56;4734395;30;20035;-93
2022/04/03 07:43:22;;;;;;;11.57;8.85;;;;;;;1.73;69.81;102334.84;4753463;30;20038;-93
2022/04/03 07:45:49;;;;;;;12.48;8.63;;;;;;;1.86;70.01;102322.91;4737643;30;20048;-93
2022/04/03 07:48:16;;;;;;;12.43;8.82;;;;;;;1.97;69.78;102317.91;4732763;30;20055;-92
2022/04/03 07:50:42;;;;;;;11.52;8.10;;;;;;;2.23;69.27;102328.81;4737306;30;20563;-93
2022/04/03 07:53:08;;;;;;;10.98;7.43;;;;;;;2.58;69.19;102333.78;4756684;30;20039;-93
2022/04/03 07:55:34;;;;;;;10.82;7.85;;;;;;;2.96;68.77;102335.25;4750035;30;20400;-93
2022/04/03 07:58:00;;;;;;;10.32;6.82;;;;;;;3.31;67.75;102332.25;4752862;30;20337;-94
2022/04/03 08:00:25;;;;;;;10.18;6.72;;;;;;;3.62;66.11;102325.69;4736840;30;20044;-93
2022/04/03 08:02:51;;;;;;;8.73;6.03;;;;;;;3.99;65.51;102334.84;4736743;30;20364;-93
2022/04/03 08:05:16;;;;;;;7.55;5.32;;;;;;;4.25;63.35;102336.88;4737859;30;20507;-93
2022/04/03 08:07:46;;;;;;;7.80;5.25;;;;;;;4.52;62.86;102331.91;4736501;30;20036;-94
2022/04/03 08:10:14;;;;;;;6.47;4.85;;;;;;;4.83;61.69;102332.13;4733421;30;20748;-95
2022/04/03 08:12:42;;;;;;;5.97;4.18;;;;;;;5.14;60.39;102341.09;4734999;30;20067;-95
2022/04/03 08:15:10;;;;;;;6.22;3.05;;;;;;;5.34;58.47;102314.97;4734679;30;20051;-94
2022/04/03 08:17:39;;;;;;;4.28;3.10;;;;;;;5.73;57.65;102340.50;4735749;30;20028;-94
2022/04/03 08:20:10;;;;;;;7.93;3.70;;;;;;;6.09;57.30;102331.91;4732874;30;20038;-95
2022/04/03 08:22:37;;;;;;;3.77;2.97;;;;;;;6.47;54.31;102335.47;4735798;30;20039;-96
2022/04/03 08:25:05;;;;;;;3.42;2.00;;;;;;;6.70;53.08;102340.75;4751717;30;20031;-95
2022/04/03 08:27:43;;;;;;;3.05;2.42;;;;;;;6.98;53.34;102345.09;4734734;30;20187;-94
2022/04/03 08:30:14;;;;;;;5.10;2.28;;;;;;;7.20;52.60;102324.03;4734709;30;20044;-94
2022/04/03 08:32:41;;;;;;;3.10;2.22;;;;;;;7.54;51.48;102333.56;4751687;30;20055;-92
2022/04/03 08:35:07;;;;;;;2.35;2.08;;;;;;;7.86;49.96;102340.47;4745479;30;20488;-94
2022/04/03 08:37:32;;;;;;;2.58;1.83;;;;;;;8.17;50.35;102335.91;4731337;30;20118;-93
2022/04/03 08:39:57;;;;;;;2.55;1.40;;;;;;;8.52;49.24;102330.41;4734309;30;20565;-94
2022/04/03 08:42:23;;;;;;;3.85;1.90;;;;;;;8.82;47.11;102341.63;4735315;30;20385;-95
2022/04/03 08:44:48;;;;;;;2.35;1.67;;;;;;;8.83;46.80;102335.44;4736778;30;20097;-94
2022/04/03 08:47:17;;;;;;;3.88;1.67;;;;;;;9.11;47.30;102341.34;4735412;30;20260;-96
2022/04/03 08:49:44;;;;;;;3.35;1.83;;;;;;;9.45;46.12;102337.44;4735285;30;20040;-95
2022/04/03 08:52:12;;;;;;;3.42;2.08;;;;;;;9.90;45.06;102336.88;4736055;30;20040;-96
2022/04/03 08:54:38;;;;;;;2.30;1.88;;;;;;;10.20;43.74;102348.78;4734476;30;20039;-94
2022/04/03 08:57:04;;;;;;;2.17;1.90;;;;;;;10.34;42.34;102341.56;4737417;30;20334;-96
2022/04/03 08:59:29;;;;;;;1.90;1.50;;;;;;;10.42;43.46;102344.97;4736999;30;20039;-94
2022/04/03 09:01:54;;;;;;;2.60;2.08;;;;;;;10.65;42.77;102335.81;4737933;30;20043;-95
2022/04/03 09:04:21;;;;;;;3.22;1.42;;;;;;;11.05;40.21;102343.03;4745325;30;20649;-94
2022/04/03 09:09:24;;;;;;;4.50;2.10;;;;;;;11.93;39.20;102343.06;1405326;28;20420;-90
2022/04/03 09:12:09;;;;;;;3.22;1.70;;;;;;;12.34;41.64;102331.53;4757287;30;20040;-90
2022/04/03 09:14:35;;;;;;;4.18;2.25;;;;;;;12.62;36.50;102321.13;4758817;30;20504;-89
2022/04/03 09:17:01;;;;;;;5.28;1.70;;;;;;;13.00;36.84;102325.44;4766403;30;20031;-89
2022/04/03 09:19:34;;;;;;;5.45;1.73;;;;;;;13.41;38.54;102319.97;4761034;30;20126;-90
2022/04/03 09:22:02;;;;;;;2.88;1.38;;;;;;;13.69;34.10;102322.69;4756691;30;20445;-89
2022/04/03 09:24:28;;;;;;;2.10;1.33;;;;;;;13.21;36.45;102316.03;4761535;30;20481;-89
2022/04/03 09:26:58;;;;;;;3.35;2.17;;;;;;;12.99;37.40;102304.25;4739874;30;20478;-89
2022/04/03 09:29:24;;;;;;;1.50;1.40;;;;;;;12.77;36.33;102311.91;4760743;30;20114;-90
2022/04/03 09:31:58;;;;;;;2.22;1.25;;;;;;;12.48;35.49;102320.59;4764965;30;20062;-90
2022/04/03 09:34:27;;;;;;;3.28;1.30;;;;;;;12.19;36.78;102313.34;4770043;30;20081;-90
2022/04/03 09:36:55;;;;;;;3.55;1.30;;;;;;;12.93;36.17;102323.00;4769863;30;20039;-90
2022/04/03 09:39:24;;;;;;;2.05;1.50;;;;;;;12.75;36.20;102322.56;4769882;30;20036;-90
2022/04/03 09:41:57;;;;;;;2.95;1.40;;;;;;;13.00;36.83;102314.81;4769917;30;20034;-90
2022/04/03 09:44:42;;;;;;;1.50;1.25;;;;;;;13.80;36.50;102301.97;4769846;30;20448;-89
2022/04/03 09:47:29;;;;;;;2.30;1.73;;;;;;;14.91;35.36;102320.59;4769859;30;20182;-91
2022/04/03 09:49:57;;;;;;;2.03;1.42;;;;;;;15.60;31.31;102316.31;4753770;30;20039;-90
2022/04/03 09:52:36;;;;;;;5.93;1.00;;;;;;;16.17;32.03;102311.47;4770622;30;20035;-90
2022/04/03 09:55:24;;;;;;;2.83;1.60;;;;;;;16.47;30.06;102304.88;4757246;30;20389;-91
2022/04/03 09:58:02;;;;;;;1.85;1.60;;;;;;;17.13;30.02;102303.91;4773387;30;20451;-89
2022/04/03 10:00:33;;;;;;;2.78;1.35;;;;;;;17.27;29.48;102291.66;4773555;30;20110;-90
2022/04/03 10:03:00;;;;;;;4.80;1.17;;;;;;;17.85;29.21;102293.47;4757227;30;20515;-89
2022/04/03 10:05:29;;;;;;;1.95;1.05;;;;;;;18.89;26.45;102301.72;4773111;30;20170;-90
2022/04/03 10:07:58;;;;;;;2.15;1.15;;;;;;;19.24;25.18;102288.28;4749147;30;20059;-91
2022/04/03 10:10:23;;;;;;;1.25;0.85;;;;;;;19.54;25.60;102294.66;4739292;30;20447;-90
2022/04/03 10:12:49;;;;;;;1.90;1.08;;;;;;;17.70;27.35;102273.63;4756838;30;20062;-91
2022/04/03 10:15:15;;;;;;;2.53;1.30;;;;;;;17.99;27.39;102280.28;4758861;30;20043;-89
2022/04/03 10:17:40;;;;;;;2.05;1.20;;;;;;;19.20;26.18;102276.84;4766439;30;20131;-92
2022/04/03 10:20:06;;;;;;;2.17;0.90;;;;;;;19.85;22.83;102277.75;4739263;30;20107;-90
2022/04/03 10:22:38;;;;;;;3.45;0.80;;;;;;;18.40;24.40;102276.53;4744122;30;20059;-90
2022/04/03 10:25:11;;;;;;;0.95;0.70;;;;;;;16.94;26.60;102274.47;4762026;30;20021;-90
2022/04/03 10:27:39;;;;;;;2.45;0.80;;;;;;;15.85;27.86;102270.06;4744826;30;20040;-89
2022/04/03 10:30:06;;;;;;;1.25;0.70;;;;;;;15.54;29.72;102277.44;4761535;30;20091;-88
2022/04/03 10:32:34;;;;;;;2.25;0.90;;;;;;;14.97;28.91;102278.66;4758690;30;20032;-90
2022/04/03 10:35:08;;;;;;;2.58;0.80;;;;;;;14.23;30.61;102280.25;4747950;30;20123;-88
2022/04/03 10:37:42;;;;;;;0.70;0.70;;;;;;;15.08;28.87;102266.72;4755812;30;20529;-91
2022/04/03 10:40:10;;;;;;;3.22;1.10;;;;;;;15.39;29.25;102267.34;4740069;30;20197;-89
2022/04/03 10:42:53;;;;;;;3.88;1.13;;;;;;;14.92;31.46;102271.72;4751214;30;20040;-89
2022/04/03 10:45:23;;;;;;;1.58;0.85;;;;;;;14.12;29.82;102277.03;4753908;30;20032;-89
2022/04/03 10:47:49;;;;;;;2.03;1.05;;;;;;;13.36;31.03;102266.97;4756102;30;20146;-88
2022/04/03 10:50:15;;;;;;;1.40;0.90;;;;;;;13.05;31.51;102266.91;4757752;30;20122;-89
2022/04/03 10:52:40;;;;;;;1.52;0.90;;;;;;;13.17;31.25;102263.94;4759079;30;20104;-88
2022/04/03 10:55:27;;;;;;;2.03;1.10;;;;;;;13.08;32.65;102253.56;4741658;30;20040;-89
2022/04/03 11:01:25;;;;;;;6.70;1.10;;;;;;;12.38;33.30;102243.03;4767049;30;20047;-91
2022/04/03 11:04:11;;;;;;;1.60;1.45;;;;;;;12.11;33.74;102257.84;4748759;30;20478;-84
2022/04/03 11:06:41;;;;;;;2.80;1.33;;;;;;;11.95;34.34;102260.00;4727447;30;20020;-86
2022/04/03 11:09:09;;;;;;;2.90;1.20;;;;;;;11.89;34.01;102261.88;4744503;30;20351;-85
2022/04/03 11:11:41;;;;;;;2.08;1.30;;;;;;;11.87;35.62;102254.00;4743738;30;20036;-83
2022/04/03 11:14:09;;;;;;;1.55;1.42;;;;;;;11.81;35.71;102255.88;4747023;30;20397;-83
2022/04/03 11:16:55;;;;;;;1.88;1.30;;;;;;;11.84;35.83;102258.47;4742756;30;20052;-82
2022/04/03 11:19:41;;;;;;;1.33;1.08;;;;;;;11.84;35.49;102242.56;4744986;30;20052;-83
2022/04/03 11:22:09;;;;;;;1.42;1.20;;;;;;;11.70;34.09;102241.09;4742165;30;20082;-82
2022/04/03 11:24:37;;;;;;;3.35;0.90;;;;;;;11.55;34.33;102238.78;4745353;30;20572;-82
2022/04/03 11:27:04;;;;;;;3.33;1.27;;;;;;;11.56;34.98;102237.84;4746854;30;20415;-83
2022/04/03 11:29:30;;;;;;;3.85;1.63;;;;;;;11.53;34.86;102240.59;4750639;30;20116;-82
2022/04/03 11:31:56;;;;;;;2.33;1.42;;;;;;;11.48;35.38;102238.03;4731668;30;20267;-83